Map

Track Data

SID SEASON NUMBER BASIN SUBBASIN NAME ISO_TIME NATURE LAT LON WMO_WIND WMO_PRES WMO_AGENCY TRACK_TYPE DIST2LAND LANDFALL IFLAG USA_AGENCY USA_ATCF_ID USA_LAT USA_LON USA_RECORD USA_STATUS USA_WIND USA_PRES USA_SSHS USA_R34_NE USA_R34_SE USA_R34_SW USA_R34_NW USA_R50_NE USA_R50_SE USA_R50_SW USA_R50_NW USA_R64_NE USA_R64_SE USA_R64_SW USA_R64_NW USA_POCI USA_ROCI USA_RMW USA_EYE TOKYO_LAT TOKYO_LON TOKYO_GRADE TOKYO_WIND TOKYO_PRES TOKYO_R50_DIR TOKYO_R50_LONG TOKYO_R50_SHORT TOKYO_R30_DIR TOKYO_R30_LONG TOKYO_R30_SHORT TOKYO_LAND CMA_LAT CMA_LON CMA_CAT CMA_WIND CMA_PRES HKO_LAT HKO_LON HKO_CAT HKO_WIND HKO_PRES NEWDELHI_LAT NEWDELHI_LON NEWDELHI_GRADE NEWDELHI_WIND NEWDELHI_PRES NEWDELHI_CI NEWDELHI_DP NEWDELHI_POCI REUNION_LAT REUNION_LON REUNION_TYPE REUNION_WIND REUNION_PRES REUNION_TNUM REUNION_CI REUNION_RMW REUNION_R34_NE REUNION_R34_SE REUNION_R34_SW REUNION_R34_NW REUNION_R50_NE REUNION_R50_SE REUNION_R50_SW REUNION_R50_NW REUNION_R64_NE REUNION_R64_SE REUNION_R64_SW REUNION_R64_NW BOM_LAT BOM_LON BOM_TYPE BOM_WIND BOM_PRES BOM_TNUM BOM_CI BOM_RMW BOM_R34_NE BOM_R34_SE BOM_R34_SW BOM_R34_NW BOM_R50_NE BOM_R50_SE BOM_R50_SW BOM_R50_NW BOM_R64_NE BOM_R64_SE BOM_R64_SW BOM_R64_NW BOM_ROCI BOM_POCI BOM_EYE BOM_POS_METHOD BOM_PRES_METHOD NADI_LAT NADI_LON NADI_CAT NADI_WIND NADI_PRES WELLINGTON_LAT WELLINGTON_LON WELLINGTON_WIND WELLINGTON_PRES DS824_LAT DS824_LON DS824_STAGE DS824_WIND DS824_PRES TD9636_LAT TD9636_LON TD9636_STAGE TD9636_WIND TD9636_PRES TD9635_LAT TD9635_LON TD9635_WIND TD9635_PRES TD9635_ROCI NEUMANN_LAT NEUMANN_LON NEUMANN_CLASS NEUMANN_WIND NEUMANN_PRES MLC_LAT MLC_LON MLC_CLASS MLC_WIND MLC_PRES USA_GUST BOM_GUST BOM_GUST_PER REUNION_GUST REUNION_GUST_PER USA_SEAHGT USA_SEARAD_NE USA_SEARAD_SE USA_SEARAD_SW USA_SEARAD_NW STORM_SPEED STORM_DIR
1993045S13170 1993 13 SP MM OLI 1993-02-14 00:00:00 TS -12.9000 169.600 main 357 357 O___________O_ jtwc_sh SH201993 -12.9000 169.600 20 -1 -12.9000 169.600 TC 20 7 109
1993045S13170 1993 13 SP MM OLI 1993-02-14 03:00:00 TS -13.0151 169.950 main 376 376 P___________P_ SH201993 -13.0151 169.950 20 -1 -13.0151 169.950 TC 20 7 106
1993045S13170 1993 13 SP MM OLI 1993-02-14 06:00:00 TS -13.1000 170.300 main 405 405 O___________O_ jtwc_sh SH201993 -13.1000 170.300 20 -1 -13.1000 170.300 TC 20 7 101
1993045S13170 1993 13 SP MM OLI 1993-02-14 09:00:00 TS -13.1425 170.650 main 442 437 P___________P_ SH201993 -13.1425 170.650 20 -1 -13.1425 170.650 TC 20 7 98
1993045S13170 1993 13 SP MM OLI 1993-02-14 12:00:00 TS -13.2000 171.000 main 466 466 O___________O_ jtwc_sh SH201993 -13.2000 171.000 20 -1 -13.2000 171.000 TC 20 7 105
1993045S13170 1993 13 SP MM OLI 1993-02-14 15:00:00 TS -13.3275 171.350 main 501 497 P___________P_ SH201993 -13.3275 171.350 20 -1 -13.3275 171.350 TC 20 7 114
1993045S13170 1993 13 SP MM OLI 1993-02-14 18:00:00 TS -13.5000 171.700 main 523 523 O___________O_ jtwc_sh SH201993 -13.5000 171.700 20 -1 -13.5000 171.700 TC 20 8 118
1993045S13170 1993 13 SP MM OLI 1993-02-14 21:00:00 TS -13.6849 172.050 main 546 546 P___________P_ SH201993 -13.6849 172.050 22 -1 -13.6849 172.050 TC 22 8 120
1993045S13170 1993 13 SP MM OLI 1993-02-15 00:00:00 TS -13.9000 172.400 main 562 562 O___________O_ jtwc_sh SH201993 -13.9000 172.400 25 -1 -13.9000 172.400 TC 25 8 123
1993045S13170 1993 13 SP MM OLI 1993-02-15 03:00:00 TS -14.1275 172.758 main 590 585 P___________P_ SH201993 -14.1275 172.758 25 -1 -14.1275 172.758 TC 25 8 129
1993045S13170 1993 13 SP MM OLI 1993-02-15 06:00:00 TS -14.4111 173.044 main 591 545 O_______O___O_ jtwc_sh SH201993 -14.4000 173.100 25 -1 -14.5000 172.600 25 999 -14.4000 173.100 TC 25 8 142
1993045S13170 1993 13 SP MM OLI 1993-02-15 09:00:00 TS -14.7690 173.276 main 538 510 P_______P___P_ SH201993 -14.7425 173.422 25 -1 -14.8751 172.692 27 998 -14.7425 173.422 TC 25 8 151
1993045S13170 1993 13 SP MM OLI 1993-02-15 12:00:00 TS -15.1273 173.455 main 501 474 O_______O___O_ jtwc_sh SH201993 -15.1000 173.700 25 -1 -15.2000 172.800 30 997 -15.1000 173.700 TC 25 7 156
1993045S13170 1993 13 SP MM OLI 1993-02-15 15:00:00 TS -15.4164 173.577 main 474 438 P_______P___P_ SH201993 -15.3998 173.885 27 -1 -15.4496 172.960 30 997 -15.3998 173.885 TC 27 7 147
1993045S13170 1993 13 SP MM OLI 1993-02-15 18:00:00 TS -15.7000 173.833 main 438 375 O_______O___O_ jtwc_sh SH201993 -15.7000 174.100 30 -1 -15.7000 173.300 30 997 -15.7000 174.100 TC 30 9 133
1993045S13170 1993 13 SP MM OLI 1993-02-15 21:00:00 TS -16.0651 174.288 main 370 307 P_______P___P_ SH201993 -16.0575 174.462 30 -1 -16.0804 173.939 30 997 -16.0575 174.462 TC 30 12 126
1993045S13170 1993 13 SP MM OLI 1993-02-16 00:00:00 TS -16.4000 174.833 main 307 249 O_______O___O_ jtwc_sh SH201993 -16.4000 174.900 30 -1 -16.4000 174.700 30 997 -16.4000 174.900 TC 30 12 117
1993045S13170 1993 13 SP MM OLI 1993-02-16 03:00:00 TS -16.5983 175.363 main 240 192 P_______P___P_ SH201993 -16.6574 175.343 32 -1 -16.4801 175.403 30 997 -16.6574 175.343 TC 32 11 110
1993045S13170 1993 13 SP MM OLI 1993-02-16 06:00:00 TS -16.7667 175.867 main 182 140 O_______O___O_ jtwc_sh SH201993 -16.9000 175.800 35 0 -16.5000 176.000 30 997 -16.9000 175.800 TC 35 10 112
1993045S13170 1993 13 SP MM OLI 1993-02-16 09:00:00 TS -16.9615 176.301 main 134 86 P_______P___P_ SH201993 -17.1700 176.265 37 0 -16.5445 176.373 32 996 -17.1700 176.265 TC 37 9 122
1993045S13170 1993 13 SP MM OLI 1993-02-16 12:00:00 TS -17.2667 176.700 main 81 30 O_______O___O_ jtwc_sh SH201993 -17.5000 176.700 40 0 -16.8000 176.700 35 995 -17.5000 176.700 TC 40 11 136
1993045S13170 1993 13 SP MM OLI 1993-02-16 15:00:00 TS -17.7666 177.105 main 23 0 P_______P___P_ SH201993 -17.9199 177.073 42 0 -17.4600 177.170 37 992 -17.9199 177.073 TC 42 13 145
1993045S13170 1993 13 SP MM OLI 1993-02-16 18:00:00 TS -18.3667 177.500 main 24 24 O_______O___O_ jtwc_sh SH201993 -18.4000 177.400 45 0 -18.3000 177.700 40 990 -18.4000 177.400 TC 45 14 148
1993045S13170 1993 13 SP MM OLI 1993-02-16 21:00:00 TS -18.9474 177.886 main 67 67 P_______P___P_ SH201993 -18.8848 177.693 47 0 -19.0726 178.272 40 990 -18.8848 177.693 TC 47 14 148
1993045S13170 1993 13 SP MM OLI 1993-02-17 00:00:00 TS -19.5333 178.267 main 134 134 O_______O___O_ jtwc_sh SH201993 -19.4000 178.000 50 0 -19.8000 178.800 40 990 -19.4000 178.000 TC 50 14 148
1993045S13170 1993 13 SP MM OLI 1993-02-17 03:00:00 TS -20.0974 178.660 main 208 208 P_______P___P_ SH201993 -19.9350 178.385 50 0 -20.4223 179.210 40 990 -19.9350 178.385 TC 50 13 148
1993045S13170 1993 13 SP MM OLI 1993-02-17 06:00:00 TS -20.6667 179.033 main 281 281 O_______O___O_ jtwc_sh SH201993 -20.5000 178.800 50 0 -21.0000 179.500 40 990 -20.5000 178.800 TC 50 13 151
1993045S13170 1993 13 SP MM OLI 1993-02-17 09:00:00 TS -21.2640 179.350 main 358 358 P_______P___P_ SH201993 -21.0924 179.193 50 0 -21.6073 179.666 40 990 -21.0924 179.193 TC 50 13 154
1993045S13170 1993 13 SP MM OLI 1993-02-17 12:00:00 TS -21.8667 179.667 main 432 432 O_______O___O_ jtwc_sh SH201993 -21.7000 179.600 50 0 -22.2000 179.800 40 990 -21.7000 179.600 TC 50 13 153
1993045S13170 1993 13 SP MM OLI 1993-02-17 15:00:00 TS -22.4548 180.018 main 505 505 P_______P___P_ SH201993 -22.2998 -179.972 47 0 -22.7648 179.998 40 990 -22.2998 -179.972 TC 47 14 149
1993045S13170 1993 13 SP MM OLI 1993-02-17 18:00:00 TS -23.0333 180.433 main 573 573 O_______O___O_ jtwc_sh SH201993 -22.9000 -179.500 45 0 -23.3000 -179.700 40 990 -22.9000 -179.500 TC 45 14 143
1993045S13170 1993 13 SP MM OLI 1993-02-17 21:00:00 TS -23.5924 180.937 main 655 655 P_______P___P_ SH201993 -23.4924 -178.972 42 0 -23.7926 -179.245 40 990 -23.4924 -178.972 TC 42 15 140
1993045S13170 1993 13 SP MM OLI 1993-02-18 00:00:00 TS -24.1800 181.480 main 741 741 O_______O___O_ jtwc_sh SH201993 -24.1000 -178.400 40 0 -24.3000 -178.700 40 990 -24.1000 -178.400 TC 40 16 140
1993045S13170 1993 13 SP MM OLI 1993-02-18 03:00:00 TS -24.8204 182.055 main 827 827 P_______P___P_ SH201993 -24.7405 -177.806 37 0 -24.9004 -178.083 40 990 -24.7405 -177.806 TC 37 16 143
1993045S13170 1993 13 SP MM OLI 1993-02-18 06:00:00 TS -25.4667 182.533 40 990 wellington main 915 915 O_______O___O_ jtwc_sh SH201993 -25.4000 -177.200 35 0 -25.5000 -177.600 40 990 -25.4000 -177.200 TC 35 13 160
1993045S13170 1993 13 SP MM OLI 1993-02-18 09:00:00 NR -26.0146 182.526 main 965 965 ________P_____ SH201993 -1 -26.0146 -177.474 40 990 TC 10 182
1993045S13170 1993 13 SP MM OLI 1993-02-18 12:00:00 NR -26.5000 182.500 40 990 wellington main 1016 1016 ________O_____ -1 -26.5000 -177.500 40 990 10 0
1993045S13170 1993 13 SP MM OLI 1993-02-18 15:00:00 NR -26.9999 182.528 main 1067 1067 ________P_____ -1 -26.9999 -177.472 37 992 10 175
1993045S13170 1993 13 SP MM OLI 1993-02-18 18:00:00 NR -27.5000 182.600 35 995 wellington main 1122 1122 ________O_____ -1 -27.5000 -177.400 35 995 10 167
1993045S13170 1993 13 SP MM OLI 1993-02-18 21:00:00 NR -27.9776 182.785 main 1142 1104 ________P_____ -1 -27.9776 -177.215 35 995 11 160
1993045S13170 1993 13 SP MM OLI 1993-02-19 00:00:00 NR -28.5000 183.000 35 995 wellington main 1104 1045 ________O_____ -1 -28.5000 -177.000 35 995 12 165
1993045S13170 1993 13 SP MM OLI 1993-02-19 03:00:00 NR -29.1198 183.128 main 1045 981 ________P_____ -1 -29.1198 -176.872 32 996 13 169
1993045S13170 1993 13 SP MM OLI 1993-02-19 06:00:00 NR -29.8000 183.300 30 997 wellington main 981 924 ________O_____ -1 -29.8000 -176.700 30 997 15 162
1993045S13170 1993 13 SP MM OLI 1993-02-19 09:00:00 NR -30.5002 183.634 main 924 876 ________P_____ -1 -30.5002 -176.366 30 997 15 157
1993045S13170 1993 13 SP MM OLI 1993-02-19 12:00:00 NR -31.2000 184.000 30 997 wellington main 876 828 ________O_____ -1 -31.2000 -176.000 30 997 15 158
1993045S13170 1993 13 SP MM OLI 1993-02-19 15:00:00 NR -31.9024 184.288 main 828 788 ________P_____ -1 -31.9024 -175.712 30 997 14 162
1993045S13170 1993 13 SP MM OLI 1993-02-19 18:00:00 NR -32.5000 184.500 30 997 wellington main 788 762 ________O_____ -1 -32.5000 -175.500 30 997 10 164
1993045S13170 1993 13 SP MM OLI 1993-02-19 21:00:00 NR -32.8890 184.630 main 762 744 ________P_____ -1 -32.8890 -175.370 30 997 7 167
1993045S13170 1993 13 SP MM OLI 1993-02-20 00:00:00 NR -33.2000 184.700 30 997 wellington main 744 721 ________O_____ -1 -33.2000 -175.300 30 997 7 170
1993045S13170 1993 13 SP MM OLI 1993-02-20 03:00:00 NR -33.6031 184.769 main 721 693 ________P_____ -1 -33.6031 -175.231 30 997 9 173
1993045S13170 1993 13 SP MM OLI 1993-02-20 06:00:00 NR -34.0437 184.819 main 693 666 ________P_____ -1 -34.0437 -175.181 30 997 9 175
1993045S13170 1993 13 SP MM OLI 1993-02-20 09:00:00 NR -34.5125 184.860 main 667 637 ________P_____ -1 -34.5125 -175.140 30 997 10 176
1993045S13170 1993 13 SP MM OLI 1993-02-20 12:00:00 NR -35.0000 184.900 30 997 wellington main 637 612 ________O_____ -1 -35.0000 -175.100 30 997 10 176
1993045S13170 1993 13 SP MM OLI 1993-02-20 15:00:00 NR -35.4977 184.947 main 612 598 ________P_____ -1 -35.4977 -175.053 30 997 10 175
1993045S13170 1993 13 SP MM OLI 1993-02-20 18:00:00 NR -36.0000 185.000 30 997 wellington main 598 ________O_____ -1 -36.0000 -175.000 30 997 10 176

Digital Typhoon Data and Search

About IBTrACS Database

This database is a web-friendly format of International Best Track Archive for Climate Stewardship (IBTrACS), a global best track data archive curated by NOAA dating back to 1842.

Updated: 2021-10-21